Main page
METAR-TAF:

METAR-TAF

Airports :

Imperatriz Airport

Imperatriz, Maranhão, Brazil

latitude: 05-32S, longitude: 047-30W, elevation: 123 m

Current weather observation

The report was made 49 minutes ago, at 15:00 UTC
Wind 2 kt from the East
Temperature 28°C
Humidity 79%
Pressure 1013 hPa
Visibility 10 km or more
Broken clouds at a height of 1500 ft
Overcast at a height of 8000 ft

METAR: SBIZ 191500Z 08002KT 9999 BKN015 OVC080 28/24 Q1013

Time: 12:49 (15:49 UTC)

Forecast

The report was made 5 hours and 49 minutes ago, at 10:00 UTC
Forecast valid from 19 at 12 UTC to 19 at 24 UTC
Wind 4 kt from the Northeast
Visibility 10 km or more
Scattered clouds at a height of 1500 ft

TAF: SBIZ 191000Z 1912/1924 05004KT 9999 SCT015 TN27/1912Z TX34/1918Z RMK PEU

Weather observations and forecasts of more than 4000 airports (METAR and TAF reports).

The available stations are represented by yellow and red dots on the map.

Hover mouse over dot to see the name of the station.

Then click to see weather observations and forecasts.

To change the map : click on the green buttons with a black cross to zoom in, on the green button with a dash to zoom out, or on the green arrows for adjacent maps.


METAR-TAF: